Time;durP1;ratioP1;P1;durP2;ratioP2;P2;SDS_P1;SDS_P2;PMS_P1;PMS_P2;Temp;Humidity;BMP_temperature;BMP_pressure;BME280_temperature;BME280_humidity;BME280_pressure;Samples;Min_cycle;Max_cycle;Signal;HPM_P1;HPM_P2
2022/02/21 00:01:09;;;;;;;8.45;2.92;;;5.40;89.70;;;;;;5023948;28;20054;-62
2022/02/21 00:03:36;;;;;;;14.52;4.10;;;5.40;90.00;;;;;;5014376;28;20079;-63
2022/02/21 00:06:07;;;;;;;8.57;2.97;;;5.40;89.90;;;;;;5033476;28;20056;-64
2022/02/21 00:08:34;;;;;;;9.70;2.70;;;5.40;90.00;;;;;;5026000;28;20050;-62
2022/02/21 00:11:04;;;;;;;11.18;2.72;;;5.40;90.10;;;;;;5019026;28;20058;-63
2022/02/21 00:13:30;;;;;;;13.82;4.38;;;5.30;90.40;;;;;;5044843;28;20084;-63
2022/02/21 00:15:57;;;;;;;9.20;2.67;;;5.30;90.20;;;;;;5027383;28;20057;-64
2022/02/21 00:18:24;;;;;;;11.73;2.85;;;5.30;90.50;;;;;;5028288;28;20054;-63
2022/02/21 00:20:52;;;;;;;9.95;3.15;;;5.30;90.50;;;;;;5013985;28;20072;-63
2022/02/21 00:23:19;;;;;;;14.35;3.53;;;5.30;90.50;;;;;;5003934;28;20436;-64
2022/02/21 00:25:51;;;;;;;15.13;4.82;;;5.30;90.40;;;;;;5015876;28;20430;-63
2022/02/21 00:28:19;;;;;;;10.57;3.45;;;5.30;90.90;;;;;;5006499;28;20427;-63
2022/02/21 00:30:46;;;;;;;13.60;3.80;;;5.30;91.00;;;;;;5013539;28;20054;-63
2022/02/21 00:33:13;;;;;;;11.23;3.03;;;5.30;90.60;;;;;;5015501;28;20052;-64
2022/02/21 00:35:40;;;;;;;12.18;4.65;;;5.30;91.30;;;;;;5013516;28;20046;-63
2022/02/21 00:38:07;;;;;;;11.70;3.95;;;5.30;90.90;;;;;;5028246;28;20049;-63
2022/02/21 00:40:34;;;;;;;18.35;4.13;;;5.30;91.80;;;;;;5012451;28;20072;-63
2022/02/21 00:43:01;;;;;;;13.82;5.18;;;5.30;91.70;;;;;;5013502;28;20137;-63
2022/02/21 00:45:28;;;;;;;18.77;5.43;;;5.30;91.80;;;;;;5017442;28;20052;-63
2022/02/21 00:47:57;;;;;;;14.80;3.72;;;5.30;91.70;;;;;;5030814;28;20097;-63
2022/02/21 00:53:11;;;;;;;20.48;6.05;;;5.20;92.00;;;;;;5152629;23;20046;-64
2022/02/21 00:55:39;;;;;;;15.40;3.67;;;5.20;91.80;;;;;;4940410;28;20043;-64
2022/02/21 00:58:06;;;;;;;9.85;3.85;;;5.30;92.00;;;;;;4963007;28;20652;-64
2022/02/21 01:00:33;;;;;;;16.83;4.80;;;5.20;91.80;;;;;;4951700;28;20055;-64
2022/02/21 01:03:01;;;;;;;14.63;4.43;;;5.30;91.20;;;;;;4954830;28;20040;-63
2022/02/21 01:05:28;;;;;;;18.38;3.90;;;5.30;91.20;;;;;;4951480;28;20130;-63
2022/02/21 01:07:55;;;;;;;13.82;3.78;;;5.40;91.20;;;;;;4952522;28;20065;-65
2022/02/21 01:10:21;;;;;;;17.13;4.07;;;5.40;91.30;;;;;;4937110;28;20055;-63
2022/02/21 01:12:49;;;;;;;13.35;4.03;;;5.50;91.00;;;;;;4952292;28;20044;-64
2022/02/21 01:15:16;;;;;;;10.88;2.90;;;5.50;91.00;;;;;;4961720;28;20070;-64
2022/02/21 01:17:43;;;;;;;11.18;2.85;;;5.50;90.80;;;;;;4970352;28;20057;-63
2022/02/21 01:20:11;;;;;;;9.52;2.92;;;5.60;91.60;;;;;;4936800;28;20584;-63
2022/02/21 01:22:38;;;;;;;14.32;3.38;;;5.50;91.00;;;;;;4951039;28;20058;-63
2022/02/21 01:25:06;;;;;;;9.93;2.78;;;5.50;90.70;;;;;;4965354;28;20066;-63
2022/02/21 01:27:33;;;;;;;19.27;4.07;;;5.50;90.80;;;;;;4953110;28;20046;-63
2022/02/21 01:30:00;;;;;;;12.60;3.35;;;5.50;90.80;;;;;;4962561;28;20061;-64
2022/02/21 01:32:27;;;;;;;18.83;3.47;;;5.40;91.10;;;;;;4951413;28;20126;-63
2022/02/21 01:34:54;;;;;;;15.10;3.83;;;5.40;90.90;;;;;;4942632;28;20046;-64
2022/02/21 01:37:21;;;;;;;13.20;3.35;;;5.40;90.50;;;;;;4963507;28;20074;-63
2022/02/21 01:39:48;;;;;;;8.10;2.83;;;5.40;90.70;;;;;;4984016;28;20047;-64
2022/02/21 01:42:14;;;;;;;14.05;5.25;;;5.30;90.80;;;;;;4958904;28;20054;-65
2022/02/21 01:44:46;;;;;;;12.20;4.28;;;5.30;91.00;;;;;;4935537;28;20086;-63
2022/02/21 01:47:17;;;;;;;15.45;5.10;;;5.30;90.90;;;;;;4950430;28;20043;-64
2022/02/21 01:49:44;;;;;;;8.15;2.97;;;5.30;91.10;;;;;;4950222;28;20047;-64
2022/02/21 01:52:11;;;;;;;15.13;3.90;;;5.30;91.60;;;;;;4953322;28;20051;-65
2022/02/21 01:54:38;;;;;;;12.52;3.08;;;5.40;91.50;;;;;;4958935;28;20070;-64
2022/02/21 01:57:05;;;;;;;13.82;3.58;;;5.40;91.80;;;;;;4952921;28;20050;-64
2022/02/21 01:59:33;;;;;;;6.22;2.88;;;5.40;92.20;;;;;;4955210;28;20109;-64
2022/02/21 02:02:00;;;;;;;7.90;2.20;;;5.40;91.90;;;;;;4952215;28;20055;-64
2022/02/21 02:04:26;;;;;;;9.60;3.45;;;5.50;92.80;;;;;;4969202;28;20055;-64
2022/02/21 02:06:53;;;;;;;7.97;3.00;;;5.50;92.60;;;;;;4968229;28;20055;-64
2022/02/21 02:09:20;;;;;;;9.30;2.35;;;5.50;93.00;;;;;;4969190;28;20050;-64
2022/02/21 02:11:47;;;;;;;7.68;3.50;;;5.50;92.60;;;;;;4967498;28;20059;-64
2022/02/21 02:14:34;;;;;;;9.38;1.88;;;5.60;92.70;;;;;;4935661;29;20062;-65
2022/02/21 02:17:12;;;;;;;6.95;2.05;;;5.60;92.00;;;;;;4952808;28;20059;-64
2022/02/21 02:19:40;;;;;;;8.32;2.33;;;5.60;92.00;;;;;;4958881;28;20093;-64
2022/02/21 02:22:11;;;;;;;8.57;2.00;;;5.60;92.30;;;;;;4935925;29;20063;-64
2022/02/21 02:24:39;;;;;;;10.45;2.10;;;5.60;91.50;;;;;;4966349;28;20121;-64
2022/02/21 02:27:08;;;;;;;5.30;1.95;;;5.60;91.40;;;;;;4969111;28;20068;-63
2022/02/21 02:29:39;;;;;;;5.80;1.90;;;5.50;91.40;;;;;;4954097;28;20051;-64
2022/02/21 02:32:07;;;;;;;9.00;2.08;;;5.50;91.10;;;;;;4982720;28;20058;-63
2022/02/21 02:34:34;;;;;;;5.93;1.98;;;5.40;91.60;;;;;;4976137;28;20809;-65
2022/02/21 02:37:01;;;;;;;5.35;1.63;;;5.40;91.80;;;;;;4965382;28;20672;-64
2022/02/21 02:39:31;;;;;;;8.38;2.50;;;5.40;91.70;;;;;;4957761;28;20058;-63
2022/02/21 02:42:01;;;;;;;5.80;2.13;;;5.30;91.20;;;;;;4954200;28;20130;-63
2022/02/21 02:44:28;;;;;;;5.28;1.73;;;5.30;91.50;;;;;;4957315;28;20105;-63
2022/02/21 02:46:55;;;;;;;6.43;1.70;;;5.30;91.60;;;;;;4940638;29;20438;-64
2022/02/21 02:49:22;;;;;;;7.55;2.78;;;5.20;91.60;;;;;;4934240;29;20513;-63
2022/02/21 02:51:49;;;;;;;8.27;2.30;;;5.20;91.30;;;;;;4951635;28;20051;-64
2022/02/21 02:54:16;;;;;;;6.88;2.90;;;5.10;91.20;;;;;;4951420;28;20054;-63
2022/02/21 02:56:43;;;;;;;9.85;2.83;;;5.10;91.30;;;;;;4984496;28;20055;-64
2022/02/21 02:59:10;;;;;;;8.63;2.22;;;5.10;91.30;;;;;;4953675;29;20051;-64
2022/02/21 03:01:37;;;;;;;6.03;2.60;;;5.00;91.50;;;;;;4954850;29;20489;-63
2022/02/21 03:04:04;;;;;;;9.48;2.13;;;5.00;91.60;;;;;;4953557;29;20383;-64
2022/02/21 03:06:33;;;;;;;13.05;2.40;;;5.00;92.00;;;;;;4953888;29;20059;-63
2022/02/21 03:09:00;;;;;;;7.15;1.98;;;5.00;91.40;;;;;;4937720;29;20051;-63
2022/02/21 03:11:27;;;;;;;6.15;2.10;;;4.90;91.70;;;;;;4966556;28;20057;-64
2022/02/21 03:13:55;;;;;;;6.55;1.63;;;4.90;91.60;;;;;;4943440;29;20406;-64
2022/02/21 03:16:22;;;;;;;5.28;1.75;;;4.90;91.40;;;;;;4960148;28;20522;-63
2022/02/21 03:18:48;;;;;;;6.18;1.90;;;4.90;91.20;;;;;;4970983;28;20553;-64
2022/02/21 03:21:15;;;;;;;4.05;1.80;;;4.90;90.80;;;;;;4948739;29;20043;-63
2022/02/21 03:23:42;;;;;;;8.48;1.85;;;4.80;91.20;;;;;;4985545;28;20434;-64
2022/02/21 03:26:09;;;;;;;6.95;2.45;;;4.80;91.20;;;;;;4953186;29;20055;-63
2022/02/21 03:28:36;;;;;;;7.25;1.80;;;4.80;90.90;;;;;;4985714;28;20047;-63
2022/02/21 03:31:03;;;;;;;5.55;1.90;;;4.80;91.40;;;;;;4983541;28;20047;-64
2022/02/21 03:33:30;;;;;;;5.18;1.85;;;4.80;91.40;;;;;;4953383;28;20514;-63
2022/02/21 03:35:57;;;;;;;7.90;2.17;;;4.80;91.10;;;;;;4960460;28;20458;-63
2022/02/21 03:38:24;;;;;;;12.38;3.15;;;4.80;90.90;;;;;;4962078;28;20047;-64
2022/02/21 03:40:52;;;;;;;4.22;1.40;;;4.80;90.70;;;;;;4957637;28;20051;-63
2022/02/21 03:43:19;;;;;;;8.25;1.75;;;4.80;90.30;;;;;;4952510;29;20054;-63
2022/02/21 03:45:48;;;;;;;4.85;1.80;;;4.80;91.00;;;;;;4984603;28;20058;-64
2022/02/21 03:48:19;;;;;;;8.63;3.10;;;4.80;90.80;;;;;;4983345;28;20051;-64
2022/02/21 03:50:46;;;;;;;10.63;2.88;;;4.80;90.60;;;;;;4968872;28;20059;-63
2022/02/21 03:53:13;;;;;;;8.15;1.80;;;4.70;90.50;;;;;;4968482;28;20538;-64
2022/02/21 03:55:40;;;;;;;7.03;2.50;;;4.70;90.90;;;;;;4954260;28;20051;-63
2022/02/21 03:58:07;;;;;;;4.65;1.63;;;4.80;91.00;;;;;;4954268;28;20043;-64
2022/02/21 04:00:36;;;;;;;8.23;2.40;;;4.80;91.30;;;;;;4952143;28;20047;-63
2022/02/21 04:03:03;;;;;;;4.53;2.15;;;4.70;91.40;;;;;;4966409;28;20067;-64
2022/02/21 04:05:30;;;;;;;5.20;1.70;;;4.70;91.20;;;;;;4972293;28;20050;-63
2022/02/21 04:07:59;;;;;;;7.22;2.60;;;4.70;91.30;;;;;;4953055;28;20394;-64
2022/02/21 04:10:28;;;;;;;6.90;2.13;;;4.70;91.40;;;;;;4958013;28;20044;-64
2022/02/21 04:12:55;;;;;;;6.80;2.47;;;4.70;91.70;;;;;;4965055;28;20050;-63
2022/02/21 04:15:22;;;;;;;9.57;2.78;;;4.70;91.70;;;;;;4970207;28;20060;-64
2022/02/21 04:17:50;;;;;;;11.13;3.40;;;4.70;91.70;;;;;;4971291;28;20058;-63
2022/02/21 04:20:21;;;;;;;7.72;2.35;;;4.60;92.00;;;;;;4949390;29;20047;-63
2022/02/21 04:22:48;;;;;;;8.27;2.92;;;4.70;91.60;;;;;;4967751;28;20130;-64
2022/02/21 04:25:15;;;;;;;9.43;2.20;;;4.60;92.20;;;;;;4962275;28;20055;-64
2022/02/21 04:27:47;;;;;;;11.40;2.55;;;4.60;92.30;;;;;;4964277;28;20059;-64
2022/02/21 04:30:15;;;;;;;7.85;2.55;;;4.70;92.00;;;;;;4967132;28;20141;-64
2022/02/21 04:32:46;;;;;;;8.30;2.50;;;4.70;92.60;;;;;;4963330;28;20054;-63
2022/02/21 04:35:14;;;;;;;11.63;4.82;;;4.70;92.60;;;;;;4943689;28;20097;-64
2022/02/21 04:37:41;;;;;;;8.55;2.25;;;4.60;92.80;;;;;;4965670;28;20490;-63
2022/02/21 04:40:09;;;;;;;11.77;2.47;;;4.70;92.70;;;;;;4964597;28;20051;-64
2022/02/21 04:42:36;;;;;;;10.35;2.92;;;4.70;92.70;;;;;;4942688;28;20047;-63
2022/02/21 04:45:04;;;;;;;15.15;3.20;;;4.80;92.60;;;;;;4952858;28;20051;-63
2022/02/21 04:47:31;;;;;;;8.63;2.40;;;4.80;93.20;;;;;;4969590;28;20398;-63
2022/02/21 04:49:58;;;;;;;13.75;3.75;;;4.80;93.40;;;;;;4961852;28;20054;-64
2022/02/21 04:52:25;;;;;;;9.52;2.65;;;4.80;93.00;;;;;;4951631;28;20055;-65
2022/02/21 04:54:52;;;;;;;15.93;3.70;;;4.80;92.60;;;;;;4934045;29;20058;-63
2022/02/21 04:57:18;;;;;;;13.90;3.78;;;4.80;93.10;;;;;;4950897;28;20059;-68
2022/02/21 04:59:45;;;;;;;10.55;2.90;;;4.80;93.00;;;;;;4937548;29;20059;-64
2022/02/21 05:02:12;;;;;;;13.40;3.58;;;4.80;93.60;;;;;;4953453;28;20135;-63
2022/02/21 05:04:39;;;;;;;14.52;3.63;;;4.80;93.20;;;;;;4969808;28;20050;-63
2022/02/21 05:07:13;;;;;;;12.80;3.38;;;4.80;93.30;;;;;;4965070;28;20047;-64
2022/02/21 05:09:41;;;;;;;10.30;4.25;;;4.80;93.30;;;;;;4950740;28;20058;-64
2022/02/21 05:12:08;;;;;;;13.98;3.13;;;4.80;93.80;;;;;;4943077;28;20046;-64
2022/02/21 05:14:35;;;;;;;11.07;3.70;;;4.80;93.40;;;;;;4967346;28;20058;-63
2022/02/21 05:17:02;;;;;;;13.30;3.10;;;4.80;93.50;;;;;;4951619;28;20047;-64
2022/02/21 05:19:29;;;;;;;9.45;2.70;;;4.90;93.30;;;;;;4954580;28;20057;-63
2022/02/21 05:21:56;;;;;;;10.65;2.80;;;4.90;93.50;;;;;;4962078;28;20127;-64
2022/02/21 05:24:23;;;;;;;13.50;3.20;;;4.90;93.50;;;;;;4951468;28;20050;-64
2022/02/21 05:26:50;;;;;;;10.85;2.90;;;5.00;93.30;;;;;;4958463;28;20058;-63
2022/02/21 05:29:17;;;;;;;13.30;3.45;;;4.90;93.50;;;;;;4941430;29;20039;-63
2022/02/21 05:31:46;;;;;;;10.98;3.22;;;4.90;93.30;;;;;;4951339;28;20051;-64
2022/02/21 05:34:13;;;;;;;13.32;2.97;;;4.90;93.50;;;;;;4958280;28;20055;-64
2022/02/21 05:36:40;;;;;;;10.20;3.13;;;4.90;93.20;;;;;;4964443;28;20058;-64
2022/02/21 05:39:07;;;;;;;13.70;3.38;;;4.90;93.40;;;;;;4967870;28;20043;-63
2022/02/21 05:41:34;;;;;;;8.98;2.75;;;4.90;93.30;;;;;;4937354;28;20053;-64
2022/02/21 05:44:01;;;;;;;12.48;3.42;;;5.00;93.10;;;;;;4970403;28;20043;-64
2022/02/21 05:46:28;;;;;;;11.05;3.58;;;5.00;93.20;;;;;;4967850;28;20043;-64
2022/02/21 05:48:55;;;;;;;14.85;3.70;;;5.00;92.50;;;;;;4938416;29;20062;-63
2022/02/21 05:51:22;;;;;;;11.02;3.15;;;5.10;92.70;;;;;;4953508;28;20052;-63
2022/02/21 05:53:49;;;;;;;9.20;2.92;;;5.10;92.60;;;;;;4951848;28;20764;-64
2022/02/21 05:56:16;;;;;;;18.35;5.05;;;5.10;92.20;;;;;;4953351;28;20051;-63
2022/02/21 05:58:43;;;;;;;8.55;4.25;;;5.20;92.40;;;;;;4945519;28;20066;-64
2022/02/21 06:01:10;;;;;;;14.52;3.88;;;5.10;92.40;;;;;;4961373;28;20051;-63
2022/02/21 06:03:42;;;;;;;8.70;3.22;;;5.20;92.30;;;;;;4964983;28;20463;-63
2022/02/21 06:06:09;;;;;;;14.27;3.97;;;5.20;92.50;;;;;;4952592;28;20051;-63
2022/02/21 06:08:36;;;;;;;14.70;4.50;;;5.20;92.40;;;;;;4951700;28;20047;-63
2022/02/21 06:11:03;;;;;;;13.30;3.50;;;5.20;92.20;;;;;;4946921;28;20050;-64
2022/02/21 06:13:30;;;;;;;13.30;3.42;;;5.20;92.30;;;;;;4955919;28;20047;-64
2022/02/21 06:15:57;;;;;;;14.25;3.60;;;5.20;92.20;;;;;;4953844;28;20046;-63
2022/02/21 06:18:24;;;;;;;18.10;4.63;;;5.30;92.20;;;;;;4947380;28;20478;-64
2022/02/21 06:20:51;;;;;;;15.43;3.42;;;5.30;92.40;;;;;;4950676;28;20054;-64
2022/02/21 06:23:19;;;;;;;14.77;4.97;;;5.30;92.30;;;;;;4967301;28;20055;-63
2022/02/21 06:25:46;;;;;;;13.50;4.05;;;5.40;92.10;;;;;;4967020;28;20059;-64
2022/02/21 06:28:12;;;;;;;20.02;5.85;;;5.30;92.40;;;;;;4952009;28;20175;-63
2022/02/21 06:30:40;;;;;;;13.23;3.55;;;5.40;92.40;;;;;;4968236;28;20051;-64
2022/02/21 06:33:07;;;;;;;19.20;4.40;;;5.40;92.20;;;;;;4943566;28;20054;-65
2022/02/21 06:35:34;;;;;;;18.60;4.60;;;5.40;92.40;;;;;;4942236;28;20489;-64
2022/02/21 06:38:04;;;;;;;18.23;4.43;;;5.50;92.50;;;;;;4947739;28;20401;-72
2022/02/21 06:40:34;;;;;;;49.50;22.63;;;5.50;92.60;;;;;;4966038;28;20078;-71
2022/02/21 06:43:01;;;;;;;21.55;8.82;;;5.50;92.60;;;;;;4985972;28;20047;-71
2022/02/21 06:45:30;;;;;;;15.77;4.35;;;5.60;92.80;;;;;;4985361;28;20063;-71
2022/02/21 06:47:57;;;;;;;15.23;5.32;;;5.70;92.50;;;;;;4957696;28;20047;-71
2022/02/21 06:50:24;;;;;;;17.13;4.45;;;5.70;92.70;;;;;;4957283;28;20401;-73
2022/02/21 06:52:51;;;;;;;15.07;4.55;;;5.70;92.60;;;;;;4969814;28;20055;-76
2022/02/21 06:55:21;;;;;;;18.67;5.13;;;5.80;92.30;;;;;;4954685;29;20394;-74
2022/02/21 06:57:48;;;;;;;17.17;5.03;;;5.80;92.30;;;;;;4935885;28;20050;-73
2022/02/21 07:00:16;;;;;;;27.90;8.57;;;5.80;92.70;;;;;;4976446;28;20070;-72
2022/02/21 07:02:43;;;;;;;25.25;8.65;;;5.90;92.90;;;;;;4947658;28;20181;-72
2022/02/21 07:05:10;;;;;;;15.70;5.72;;;6.00;92.30;;;;;;4951689;28;20051;-72
2022/02/21 07:07:37;;;;;;;21.52;6.40;;;6.00;92.20;;;;;;4960957;28;20054;-69
2022/02/21 07:10:05;;;;;;;18.85;5.55;;;6.00;92.40;;;;;;4947561;28;20091;-77
2022/02/21 07:12:32;;;;;;;21.58;6.22;;;6.10;92.10;;;;;;4964759;28;20055;-75
2022/02/21 07:14:59;;;;;;;84.60;51.00;;;6.20;92.70;;;;;;4939711;28;20513;-74
2022/02/21 07:17:26;;;;;;;29.17;8.10;;;6.30;92.00;;;;;;4994735;28;20368;-72
2022/02/21 07:19:55;;;;;;;23.65;6.25;;;6.50;92.00;;;;;;4981011;28;20051;-69
2022/02/21 07:22:23;;;;;;;26.27;8.75;;;6.60;91.50;;;;;;4939975;28;20059;-68
2022/02/21 07:24:50;;;;;;;21.20;7.20;;;6.60;91.60;;;;;;4923692;29;20491;-67
2022/02/21 07:27:17;;;;;;;31.63;7.88;;;6.60;91.70;;;;;;4951172;28;20065;-71
2022/02/21 07:29:44;;;;;;;25.08;6.97;;;6.70;92.00;;;;;;4961901;28;20074;-71
2022/02/21 07:32:11;;;;;;;22.08;6.25;;;6.70;91.70;;;;;;4962373;28;20058;-65
2022/02/21 07:34:38;;;;;;;27.05;7.18;;;6.70;91.30;;;;;;4959911;28;20046;-67
2022/02/21 07:37:06;;;;;;;19.75;6.50;;;6.70;92.00;;;;;;4987906;28;20051;-69
2022/02/21 07:39:35;;;;;;;25.75;7.90;;;6.80;91.80;;;;;;4956020;28;20126;-67
2022/02/21 07:42:02;;;;;;;21.83;6.00;;;6.80;91.80;;;;;;4970276;28;20048;-69
2022/02/21 07:44:29;;;;;;;26.63;6.25;;;6.90;91.80;;;;;;4957018;28;20059;-69
2022/02/21 07:46:56;;;;;;;27.88;7.80;;;6.90;91.70;;;;;;4940240;29;20062;-68
2022/02/21 07:49:24;;;;;;;27.23;6.55;;;7.00;91.90;;;;;;4954791;29;20055;-69
2022/02/21 07:51:53;;;;;;;27.10;8.38;;;7.00;91.40;;;;;;4954429;29;20054;-68
2022/02/21 07:54:19;;;;;;;24.60;7.95;;;7.10;91.50;;;;;;4971165;28;20047;-67
2022/02/21 07:57:07;;;;;;;22.23;6.15;;;7.10;91.70;;;;;;4956424;29;20102;-68
2022/02/21 07:59:34;;;;;;;23.40;6.95;;;7.20;91.10;;;;;;5000527;28;20065;-67
2022/02/21 08:02:01;;;;;;;24.20;7.05;;;7.20;91.20;;;;;;4990007;28;20053;-67
2022/02/21 08:04:28;;;;;;;26.08;7.68;;;7.20;91.00;;;;;;5003514;28;20514;-67
2022/02/21 08:06:55;;;;;;;23.38;6.72;;;7.30;91.10;;;;;;4986667;28;20061;-68
2022/02/21 08:09:24;;;;;;;20.02;6.18;;;7.30;90.80;;;;;;4956651;28;20487;-77
2022/02/21 08:11:51;;;;;;;19.20;5.85;;;7.40;90.50;;;;;;4965528;28;20059;-77
2022/02/21 08:14:22;;;;;;;22.10;5.78;;;7.40;91.10;;;;;;4955656;29;20051;-76
2022/02/21 08:16:49;;;;;;;22.08;6.80;;;7.50;90.50;;;;;;4986274;28;20047;-74
2022/02/21 08:19:16;;;;;;;20.08;5.15;;;7.50;90.60;;;;;;4944939;29;20055;-75
2022/02/21 08:21:44;;;;;;;20.92;5.93;;;7.50;90.40;;;;;;4954327;29;20425;-77
2022/02/21 08:24:11;;;;;;;19.67;5.30;;;7.50;90.30;;;;;;4958411;28;20118;-76
2022/02/21 08:26:38;;;;;;;26.27;5.07;;;7.50;90.00;;;;;;4973456;28;20131;-75
2022/02/21 08:29:05;;;;;;;16.75;6.63;;;7.50;90.20;;;;;;4977531;28;20402;-75
2022/02/21 08:31:32;;;;;;;17.23;4.97;;;7.60;89.20;;;;;;4970921;28;20443;-73
2022/02/21 08:33:59;;;;;;;22.25;5.32;;;7.60;89.60;;;;;;4965523;28;20074;-73
2022/02/21 08:36:26;;;;;;;25.75;6.63;;;7.60;90.40;;;;;;4930597;29;20055;-78
2022/02/21 08:38:54;;;;;;;63.78;40.05;;;7.70;89.60;;;;;;4935039;29;20494;-73
2022/02/21 08:41:22;;;;;;;77.95;43.83;;;7.70;89.40;;;;;;4972491;28;20051;-76
2022/02/21 08:43:49;;;;;;;31.77;11.02;;;7.80;89.40;;;;;;4953812;28;20078;-74
2022/02/21 08:46:16;;;;;;;21.60;6.78;;;7.80;88.90;;;;;;4958322;28;20122;-75
2022/02/21 08:49:06;;;;;;;17.00;5.80;;;7.90;88.60;;;;;;4953664;29;20101;-74
2022/02/21 08:51:33;;;;;;;27.30;8.57;;;7.90;89.20;;;;;;4955235;28;20047;-73
2022/02/21 08:54:00;;;;;;;23.77;6.07;;;7.90;89.50;;;;;;4968375;28;20063;-72
2022/02/21 08:56:32;;;;;;;14.15;5.53;;;8.00;87.70;;;;;;4958596;28;20063;-73
2022/02/21 08:58:59;;;;;;;29.20;7.32;;;8.00;88.00;;;;;;4946190;28;20057;-73
2022/02/21 09:01:28;;;;;;;25.52;8.98;;;8.10;88.10;;;;;;4979361;28;20055;-76
2022/02/21 09:03:55;;;;;;;30.30;7.07;;;8.10;87.50;;;;;;4959919;28;20046;-69
2022/02/21 09:06:22;;;;;;;23.13;5.70;;;8.20;87.10;;;;;;4967649;28;20051;-65
2022/02/21 09:08:52;;;;;;;20.65;6.53;;;8.30;87.00;;;;;;4963782;28;20043;-65
2022/02/21 09:11:19;;;;;;;28.60;6.85;;;8.30;87.00;;;;;;4964480;28;20500;-66
2022/02/21 09:13:46;;;;;;;21.20;7.07;;;8.40;86.70;;;;;;4937515;29;20066;-66
2022/02/21 09:16:13;;;;;;;21.27;5.82;;;8.50;86.20;;;;;;4954147;29;20439;-65
2022/02/21 09:18:40;;;;;;;24.80;7.30;;;8.50;86.90;;;;;;4936443;28;20052;-65
2022/02/21 09:21:07;;;;;;;24.63;6.38;;;8.50;86.40;;;;;;4997798;28;20144;-65
2022/02/21 09:23:34;;;;;;;16.45;6.13;;;8.50;86.80;;;;;;4969338;28;20483;-68
2022/02/21 09:26:01;;;;;;;23.92;6.70;;;8.50;85.80;;;;;;4956652;28;20097;-65
2022/02/21 09:28:28;;;;;;;25.73;6.38;;;8.50;86.80;;;;;;4956420;28;20050;-65
2022/02/21 09:30:55;;;;;;;29.95;6.97;;;8.50;86.70;;;;;;4969139;28;20418;-65
2022/02/21 09:33:23;;;;;;;159.60;113.68;;;8.60;87.20;;;;;;4938343;29;20501;-73
2022/02/21 09:35:50;;;;;;;30.80;12.38;;;8.70;87.10;;;;;;4985475;28;20046;-75
2022/02/21 09:38:17;;;;;;;23.00;8.93;;;8.70;86.00;;;;;;4984477;28;20076;-72
2022/02/21 09:40:50;;;;;;;25.27;7.50;;;8.80;86.60;;;;;;4966935;28;20058;-73
2022/02/21 09:43:19;;;;;;;24.50;7.75;;;8.90;85.80;;;;;;4954429;28;20051;-72
2022/02/21 09:45:48;;;;;;;20.58;4.97;;;8.90;86.10;;;;;;4939263;29;20077;-76
2022/02/21 09:48:16;;;;;;;;;;;9.00;86.30;;;;;;4965401;28;20039;-68
2022/02/21 09:50:48;;;;;;;18.60;5.65;;;9.00;84.50;;;;;;4960775;28;19932;-69
2022/02/21 12:33:26;;;;;;;12.18;4.65;;;10.60;84.90;;;;;;4952094;29;20118;-73
2022/02/21 12:35:57;;;;;;;15.07;4.85;;;10.70;85.40;;;;;;4985961;28;20070;-76
2022/02/21 12:38:25;;;;;;;15.10;4.47;;;10.70;86.20;;;;;;4951992;28;20650;-73
2022/02/21 12:41:02;;;;;;;12.25;4.47;;;10.70;86.00;;;;;;4972174;28;20053;-75
2022/02/21 12:47:00;;;;;;;12.68;4.30;;;10.60;89.70;;;;;;4960742;28;20051;-74
2022/02/21 12:49:29;;;;;;;11.23;3.75;;;10.60;89.20;;;;;;4986394;28;20406;-73
2022/02/21 12:51:58;;;;;;;12.30;4.20;;;10.60;90.20;;;;;;4955398;28;20055;-72
2022/02/21 12:54:28;;;;;;;11.05;3.50;;;10.70;90.00;;;;;;4954695;28;20043;-73
2022/02/21 12:56:59;;;;;;;9.60;3.95;;;10.70;87.50;;;;;;4922906;29;20055;-74
2022/02/21 12:59:28;;;;;;;17.02;3.67;;;10.80;87.80;;;;;;4938521;29;20057;-76
2022/02/21 13:01:57;;;;;;;11.50;3.42;;;11.00;87.50;;;;;;4969392;28;20112;-74
2022/02/21 13:04:24;;;;;;;10.80;3.28;;;11.10;85.70;;;;;;4969260;28;20081;-72
2022/02/21 13:06:51;;;;;;;10.43;3.85;;;11.20;84.60;;;;;;4937979;29;20138;-72
2022/02/21 13:09:21;;;;;;;13.57;4.25;;;11.20;83.60;;;;;;4969349;28;20142;-79
2022/02/21 13:12:19;;;;;;;10.98;3.17;;;11.20;84.70;;;;;;4938540;29;20055;-74
2022/02/21 13:14:51;;;;;;;12.48;3.83;;;11.20;82.60;;;;;;4948606;28;20509;-72
2022/02/21 13:17:18;;;;;;;11.32;3.35;;;11.20;82.30;;;;;;4970463;28;20047;-75
2022/02/21 13:19:46;;;;;;;14.43;4.28;;;11.30;81.50;;;;;;4948322;29;20055;-75
2022/02/21 13:22:17;;;;;;;12.48;4.28;;;11.40;80.20;;;;;;4949478;29;20062;-73
2022/02/21 13:24:48;;;;;;;13.02;5.10;;;11.40;81.20;;;;;;4964320;28;20055;-75
2022/02/21 13:27:22;;;;;;;11.65;4.78;;;11.50;81.80;;;;;;4967362;28;20065;-73
2022/02/21 13:29:49;;;;;;;13.45;4.28;;;11.60;78.40;;;;;;4950143;28;20495;-70
2022/02/21 13:32:42;;;;;;;15.27;4.32;;;11.60;81.00;;;;;;4938273;28;20073;-73
2022/02/21 13:35:16;;;;;;;10.65;3.88;;;11.60;78.50;;;;;;4952904;29;20050;-72
2022/02/21 13:37:48;;;;;;;11.23;3.92;;;11.70;79.50;;;;;;4981577;28;20429;-76
2022/02/21 13:40:15;;;;;;;13.15;3.00;;;11.60;79.20;;;;;;4966799;28;20125;-75
2022/02/21 13:43:02;;;;;;;9.67;4.13;;;11.50;81.40;;;;;;4958960;28;20073;-74
2022/02/21 13:45:29;;;;;;;13.00;4.45;;;11.50;81.80;;;;;;4984901;28;20315;-72
2022/02/21 13:48:06;;;;;;;10.38;3.35;;;11.40;81.60;;;;;;4952949;29;20059;-72
2022/02/21 13:50:36;;;;;;;17.60;3.77;;;11.30;81.90;;;;;;4949506;29;20116;-71
2022/02/21 13:53:05;;;;;;;38.95;26.83;;;11.20;81.50;;;;;;4964465;28;20054;-77
2022/02/21 13:55:39;;;;;;;47.30;29.00;;;11.10;82.20;;;;;;4959001;28;20042;-73
2022/02/21 13:58:12;;;;;;;11.50;5.03;;;11.20;82.20;;;;;;4948635;29;20405;-75
2022/02/21 14:00:46;;;;;;;10.20;3.67;;;11.20;83.30;;;;;;4953139;29;20059;-72
2022/02/21 14:03:16;;;;;;;10.18;3.67;;;11.00;84.40;;;;;;4984873;28;20055;-76
2022/02/21 14:05:58;;;;;;;13.38;4.28;;;10.90;85.30;;;;;;4937751;29;20077;-75
2022/02/21 14:08:39;;;;;;;16.52;3.83;;;10.90;84.70;;;;;;4953238;29;20184;-77
2022/02/21 14:11:17;;;;;;;12.90;4.32;;;10.90;83.70;;;;;;4953003;29;20062;-76
2022/02/21 14:13:44;;;;;;;16.45;6.13;;;10.90;85.20;;;;;;4937471;29;20069;-75
2022/02/21 14:16:11;;;;;;;15.75;4.28;;;10.90;88.30;;;;;;4954015;28;20051;-77
2022/02/21 14:18:39;;;;;;;11.43;4.18;;;10.70;89.40;;;;;;4952935;29;20147;-75
2022/02/21 14:21:07;;;;;;;17.88;5.03;;;10.50;91.30;;;;;;4937354;29;20075;-73
2022/02/21 14:23:34;;;;;;;17.58;6.07;;;10.20;92.00;;;;;;4968611;28;20070;-73
2022/02/21 14:26:01;;;;;;;19.67;4.93;;;10.00;93.40;;;;;;4945921;28;20102;-76
2022/02/21 14:28:28;;;;;;;13.57;4.75;;;9.80;93.90;;;;;;4963853;28;20048;-78
2022/02/21 14:30:55;;;;;;;19.80;4.93;;;9.70;95.20;;;;;;4972669;28;20117;-73
2022/02/21 14:33:22;;;;;;;18.80;4.50;;;9.70;96.10;;;;;;4952188;29;20087;-73
2022/02/21 14:35:49;;;;;;;16.00;4.70;;;9.70;97.10;;;;;;4952656;29;20055;-74
2022/02/21 14:38:19;;;;;;;13.85;3.88;;;9.70;98.00;;;;;;4953817;28;20051;-76
2022/02/21 14:40:50;;;;;;;16.73;4.07;;;9.60;98.80;;;;;;4952155;29;20058;-79
2022/02/21 14:43:17;;;;;;;14.43;3.72;;;9.60;98.10;;;;;;4956025;28;20043;-76
2022/02/21 14:45:44;;;;;;;15.38;5.05;;;9.70;98.40;;;;;;4952781;29;20094;-76
2022/02/21 14:48:12;;;;;;;19.42;4.32;;;9.90;99.10;;;;;;4936675;29;20047;-73
2022/02/21 14:50:39;;;;;;;46.40;28.27;;;10.00;96.50;;;;;;4969999;28;20059;-76
2022/02/21 14:53:08;;;;;;;18.17;5.60;;;10.20;96.20;;;;;;4954931;28;20047;-78
2022/02/21 14:55:35;;;;;;;13.80;4.65;;;10.40;93.80;;;;;;4940705;29;20054;-76
2022/02/21 14:58:02;;;;;;;96.55;67.63;;;10.40;94.90;;;;;;4947847;28;20058;-76
2022/02/21 15:00:34;;;;;;;25.08;9.82;;;10.50;94.30;;;;;;4957397;28;20399;-74
2022/02/21 15:03:01;;;;;;;32.67;14.50;;;10.60;93.10;;;;;;4962946;28;20048;-76
2022/02/21 15:05:28;;;;;;;19.02;8.43;;;10.60;92.60;;;;;;4972196;28;20059;-77
2022/02/21 15:07:55;;;;;;;18.95;4.93;;;10.60;92.50;;;;;;4957078;29;20047;-74
2022/02/21 15:10:24;;;;;;;16.70;5.40;;;10.50;91.70;;;;;;4955938;29;20095;-74
2022/02/21 15:12:55;;;;;;;13.07;4.80;;;10.60;91.40;;;;;;4957360;28;20065;-77
2022/02/21 15:15:24;;;;;;;20.40;5.65;;;10.60;92.00;;;;;;4959601;28;20584;-78
2022/02/21 15:17:53;;;;;;;14.88;5.68;;;10.60;91.90;;;;;;4988059;28;20384;-79
2022/02/21 15:20:22;;;;;;;19.98;5.43;;;10.60;91.00;;;;;;4973456;28;20046;-80
2022/02/21 15:22:51;;;;;;;15.48;4.30;;;10.60;90.30;;;;;;4972402;28;20054;-79
2022/02/21 15:25:18;;;;;;;15.13;6.05;;;10.60;90.00;;;;;;4950869;29;20111;-76
2022/02/21 15:27:48;;;;;;;18.02;4.97;;;10.70;88.50;;;;;;4986213;28;20051;-76
2022/02/21 15:30:16;;;;;;;21.73;4.97;;;10.70;87.80;;;;;;4971337;28;20471;-77
2022/02/21 15:32:44;;;;;;;17.00;4.45;;;10.70;85.60;;;;;;4969933;28;20056;-71
2022/02/21 15:35:11;;;;;;;13.85;4.00;;;10.70;84.50;;;;;;4986535;28;20043;-71
2022/02/21 15:37:40;;;;;;;15.90;4.68;;;10.80;83.40;;;;;;4969060;28;20058;-72
2022/02/21 15:40:08;;;;;;;15.45;4.15;;;10.80;84.00;;;;;;4974082;28;20062;-68